Time;durP1;ratioP1;P1;durP2;ratioP2;P2;SDS_P1;SDS_P2;PMS_P1;PMS_P2;Temp;Humidity;BMP_temperature;BMP_pressure;BME280_temperature;BME280_humidity;BME280_pressure;Samples;Min_cycle;Max_cycle;Signal;HPM_P1;HPM_P2
2022/11/20 00:01:29;;;;;;;23.20;15.93;;;0.60;38.30;;;;;;5054245;28;20162;-41
2022/11/20 00:03:57;;;;;;;20.30;15.57;;;0.60;38.40;;;;;;5054860;28;20176;-43
2022/11/20 00:06:24;;;;;;;28.25;16.77;;;0.60;38.20;;;;;;5054221;28;20254;-39
2022/11/20 00:08:51;;;;;;;26.00;16.83;;;0.60;38.20;;;;;;5053548;28;20193;-40
2022/11/20 00:11:19;;;;;;;23.10;14.60;;;0.60;38.10;;;;;;5054943;28;20186;-40
2022/11/20 00:13:46;;;;;;;25.08;14.73;;;0.60;38.10;;;;;;5054935;28;20701;-40
2022/11/20 00:16:14;;;;;;;26.10;16.00;;;0.50;38.10;;;;;;5054250;28;20190;-41
2022/11/20 00:18:42;;;;;;;22.85;14.70;;;0.50;38.10;;;;;;5054599;28;20253;-41
2022/11/20 00:21:12;;;;;;;26.40;17.25;;;0.50;38.10;;;;;;5055313;28;20716;-40
2022/11/20 00:23:37;;;;;;;24.75;15.25;;;0.40;38.10;;;;;;5055837;28;20580;-41
2022/11/20 00:26:08;;;;;;;25.80;15.97;;;0.40;38.30;;;;;;5055657;28;20186;-40
2022/11/20 00:28:34;;;;;;;31.05;16.67;;;0.40;38.10;;;;;;5055785;28;20177;-40
2022/11/20 00:31:02;;;;;;;23.33;14.93;;;0.40;38.30;;;;;;5055208;28;20576;-39
2022/11/20 00:33:29;;;;;;;27.48;15.77;;;0.40;38.30;;;;;;5055668;28;20177;-40
2022/11/20 00:36:09;;;;;;;28.05;17.73;;;0.40;38.10;;;;;;5054311;28;20194;-40
2022/11/20 00:38:35;;;;;;;28.75;15.43;;;0.40;38.00;;;;;;5055368;28;20202;-42
2022/11/20 00:41:04;;;;;;;22.43;14.47;;;0.30;37.70;;;;;;5056036;28;20201;-40
2022/11/20 00:43:30;;;;;;;21.80;14.50;;;0.30;37.70;;;;;;5055735;28;20255;-42
2022/11/20 00:46:17;;;;;;;24.70;14.70;;;0.20;37.90;;;;;;5055847;28;20188;-42
2022/11/20 00:48:43;;;;;;;24.83;16.75;;;0.20;38.00;;;;;;5055259;28;20424;-41
2022/11/20 00:51:11;;;;;;;22.35;15.25;;;0.20;38.00;;;;;;5055620;28;20242;-41
2022/11/20 00:53:37;;;;;;;23.17;15.98;;;0.10;38.00;;;;;;5053451;28;20169;-40
2022/11/20 00:56:05;;;;;;;22.60;13.97;;;0.10;37.90;;;;;;5054209;28;20503;-41
2022/11/20 00:58:33;;;;;;;20.75;13.23;;;0.20;38.00;;;;;;5054080;28;20743;-41
2022/11/20 01:01:04;;;;;;;24.27;14.82;;;0.10;38.60;;;;;;5054961;28;20176;-41
2022/11/20 01:03:35;;;;;;;25.58;14.02;;;0.10;38.00;;;;;;5053654;28;20227;-42
2022/11/20 01:06:09;;;;;;;27.08;14.93;;;0.10;38.00;;;;;;5054426;28;20163;-41
2022/11/20 01:08:36;;;;;;;22.30;14.77;;;0.10;37.90;;;;;;5053937;28;20189;-41
2022/11/20 01:11:08;;;;;;;24.88;15.07;;;0.10;38.10;;;;;;5055311;28;20166;-42
2022/11/20 01:13:38;;;;;;;23.55;14.75;;;0.10;38.00;;;;;;5054916;28;20641;-40
2022/11/20 01:16:13;;;;;;;22.25;14.15;;;0.00;38.00;;;;;;5053829;28;20173;-40
2022/11/20 01:18:41;;;;;;;24.73;15.23;;;0.00;38.00;;;;;;5054340;28;20275;-41
2022/11/20 01:21:12;;;;;;;26.63;16.10;;;0.00;38.10;;;;;;5055982;28;20175;-41
2022/11/20 01:23:40;;;;;;;25.15;15.50;;;0.00;37.90;;;;;;5055549;28;20289;-43
2022/11/20 01:26:09;;;;;;;25.15;13.90;;;0.00;38.00;;;;;;5058888;23;20861;-43
2022/11/20 01:28:35;;;;;;;23.45;14.98;;;0.00;38.10;;;;;;5024672;28;20168;-44
2022/11/20 01:31:10;;;;;;;26.88;15.20;;;0.00;38.10;;;;;;5032454;28;20197;-43
2022/11/20 01:33:35;;;;;;;24.55;14.48;;;0.00;38.00;;;;;;5032369;28;20150;-43
2022/11/20 01:36:06;;;;;;;21.07;13.97;;;0.00;37.80;;;;;;5039550;28;20187;-42
2022/11/20 01:38:32;;;;;;;27.80;13.90;;;-0.10;37.90;;;;;;5052298;28;20180;-44
2022/11/20 01:40:57;;;;;;;25.17;14.50;;;-0.10;38.00;;;;;;5052314;28;20590;-43
2022/11/20 01:43:25;;;;;;;25.53;14.17;;;0.00;37.90;;;;;;5052179;28;20176;-43
2022/11/20 01:46:05;;;;;;;28.70;14.30;;;0.00;37.90;;;;;;5050352;28;20283;-45
2022/11/20 01:48:43;;;;;;;19.73;14.45;;;-0.10;37.80;;;;;;5052095;28;20161;-42
2022/11/20 01:51:21;;;;;;;19.33;12.52;;;-0.10;37.80;;;;;;5052231;28;20154;-43
2022/11/20 01:53:48;;;;;;;22.63;13.90;;;-0.10;38.00;;;;;;5052524;28;20532;-44
2022/11/20 01:56:14;;;;;;;25.92;14.40;;;-0.10;37.90;;;;;;5051521;28;20199;-44
2022/11/20 01:59:03;;;;;;;22.92;13.07;;;-0.10;37.90;;;;;;5051901;28;20162;-43
2022/11/20 02:01:29;;;;;;;21.35;14.98;;;-0.20;37.90;;;;;;5051912;28;20637;-45
2022/11/20 02:03:56;;;;;;;26.20;15.85;;;-0.20;38.00;;;;;;5051951;28;20173;-45
2022/11/20 02:06:32;;;;;;;25.90;14.25;;;-0.10;38.00;;;;;;5051319;28;20243;-44
2022/11/20 02:08:58;;;;;;;27.90;14.25;;;-0.10;38.00;;;;;;5052074;28;20672;-46
2022/11/20 02:11:24;;;;;;;28.20;14.17;;;-0.10;38.10;;;;;;5051856;28;20175;-43
2022/11/20 02:13:50;;;;;;;29.70;15.27;;;-0.20;38.00;;;;;;5050551;28;20986;-44
2022/11/20 02:16:27;;;;;;;23.02;13.65;;;-0.20;38.20;;;;;;5052929;28;20231;-45
2022/11/20 02:18:56;;;;;;;20.00;13.00;;;-0.20;38.10;;;;;;5056036;28;20170;-43
2022/11/20 02:21:26;;;;;;;25.27;16.00;;;-0.20;38.10;;;;;;5055849;28;20173;-47
2022/11/20 02:24:01;;;;;;;25.85;14.70;;;-0.20;38.10;;;;;;5055867;28;20148;-43
2022/11/20 02:26:30;;;;;;;24.58;14.27;;;-0.30;38.10;;;;;;5055138;28;20277;-44
2022/11/20 02:28:56;;;;;;;26.67;15.10;;;-0.30;38.20;;;;;;5055795;28;20167;-46
2022/11/20 02:31:22;;;;;;;22.20;13.70;;;-0.30;38.30;;;;;;5055665;28;20537;-44
2022/11/20 02:33:53;;;;;;;30.10;14.17;;;-0.30;38.40;;;;;;5055614;28;20174;-46
2022/11/20 02:36:19;;;;;;;26.48;14.07;;;-0.30;38.40;;;;;;5054992;28;20216;-43
2022/11/20 02:38:45;;;;;;;21.60;13.87;;;-0.30;38.20;;;;;;5055475;28;20263;-44
2022/11/20 02:41:10;;;;;;;23.63;15.10;;;-0.30;38.20;;;;;;5055500;28;20169;-45
2022/11/20 02:43:36;;;;;;;23.73;15.63;;;-0.30;38.30;;;;;;5055465;28;20926;-44
2022/11/20 02:46:02;;;;;;;29.40;14.43;;;-0.30;38.20;;;;;;5054864;28;20649;-43
2022/11/20 02:48:27;;;;;;;22.93;12.90;;;-0.30;38.30;;;;;;5055377;28;20883;-42
2022/11/20 02:50:53;;;;;;;29.93;16.53;;;-0.20;38.20;;;;;;5055423;28;20177;-43
2022/11/20 02:53:19;;;;;;;20.30;13.17;;;-0.30;38.10;;;;;;5055265;28;20248;-43
2022/11/20 02:55:45;;;;;;;21.60;12.97;;;-0.30;38.20;;;;;;5054565;28;20217;-44
2022/11/20 02:58:10;;;;;;;24.43;13.93;;;-0.30;38.20;;;;;;5055143;28;20846;-45
2022/11/20 03:00:36;;;;;;;28.03;14.90;;;-0.30;38.30;;;;;;5055211;28;20267;-43
2022/11/20 03:03:02;;;;;;;22.63;14.03;;;-0.30;38.20;;;;;;5055361;28;20173;-43
2022/11/20 03:05:27;;;;;;;23.80;14.43;;;-1.70;37.60;;;;;;5055054;28;20191;-43
2022/11/20 03:07:53;;;;;;;25.17;14.33;;;-0.30;38.20;;;;;;5054697;28;20248;-43
2022/11/20 03:10:19;;;;;;;23.43;13.20;;;-0.30;38.10;;;;;;5055295;28;20642;-45
2022/11/20 03:12:45;;;;;;;21.17;12.33;;;-0.40;37.90;;;;;;5055126;28;20174;-46
2022/11/20 03:15:11;;;;;;;20.73;12.50;;;-0.30;38.00;;;;;;5055001;28;20267;-46
2022/11/20 03:17:36;;;;;;;22.47;13.87;;;-0.40;37.90;;;;;;5054443;28;20205;-42
2022/11/20 03:20:03;;;;;;;24.37;14.00;;;-0.40;38.10;;;;;;5054569;28;20451;-43
2022/11/20 03:22:29;;;;;;;21.27;12.88;;;-0.40;38.10;;;;;;5054723;28;20688;-43
2022/11/20 03:24:55;;;;;;;23.90;13.95;;;-0.40;38.10;;;;;;5054789;28;20197;-43
2022/11/20 03:27:21;;;;;;;24.27;14.57;;;-0.40;38.10;;;;;;5052637;28;20232;-45
2022/11/20 03:29:46;;;;;;;20.33;12.50;;;-0.40;38.10;;;;;;5054522;28;20171;-43
2022/11/20 03:32:12;;;;;;;24.63;15.17;;;-0.40;38.00;;;;;;5054573;28;20216;-42
2022/11/20 03:34:38;;;;;;;22.40;13.60;;;-0.40;38.00;;;;;;5054510;28;20181;-43
2022/11/20 03:37:04;;;;;;;24.23;13.23;;;-0.40;38.00;;;;;;5053886;28;20189;-43
2022/11/20 03:39:29;;;;;;;25.70;14.83;;;-0.50;37.90;;;;;;5054330;28;20196;-45
2022/11/20 03:41:55;;;;;;;25.07;13.60;;;-0.50;37.90;;;;;;5054493;28;20165;-42
2022/11/20 03:44:21;;;;;;;25.90;15.37;;;-0.50;37.90;;;;;;5054354;28;20192;-42
2022/11/20 03:46:47;;;;;;;23.80;14.82;;;-0.50;38.00;;;;;;5052341;28;20710;-42
2022/11/20 03:49:13;;;;;;;27.13;13.83;;;-0.50;38.00;;;;;;5054310;28;20256;-42
2022/11/20 03:51:38;;;;;;;26.80;14.77;;;-0.50;38.00;;;;;;5054243;28;20176;-44
2022/11/20 03:54:08;;;;;;;22.07;12.63;;;-0.60;37.70;;;;;;5054167;28;20166;-42
2022/11/20 03:56:39;;;;;;;26.27;13.75;;;-0.60;37.70;;;;;;5053459;28;20220;-45
2022/11/20 03:59:05;;;;;;;22.63;15.57;;;-0.70;37.90;;;;;;5052635;28;20204;-43
2022/11/20 04:01:37;;;;;;;21.83;14.68;;;-0.70;37.80;;;;;;5053884;28;20173;-43
2022/11/20 04:04:03;;;;;;;34.25;15.25;;;-0.70;37.80;;;;;;5053967;28;20200;-44
2022/11/20 04:06:34;;;;;;;26.40;14.25;;;-0.70;37.90;;;;;;5053255;28;20190;-42
2022/11/20 04:09:00;;;;;;;27.95;15.63;;;-0.80;37.80;;;;;;5053932;28;20184;-42
2022/11/20 04:11:28;;;;;;;24.83;14.33;;;-0.80;37.80;;;;;;5053855;28;20169;-42
2022/11/20 04:13:59;;;;;;;25.90;13.55;;;-0.80;37.90;;;;;;5053701;28;20424;-46
2022/11/20 04:16:26;;;;;;;19.67;13.00;;;-0.80;37.80;;;;;;5053098;28;20217;-44
2022/11/20 04:18:59;;;;;;;21.58;13.68;;;-0.80;38.00;;;;;;5053597;28;20180;-43
2022/11/20 04:21:26;;;;;;;24.75;14.20;;;-0.80;38.10;;;;;;5053587;28;20181;-42
2022/11/20 04:23:53;;;;;;;26.33;14.10;;;-0.80;37.90;;;;;;5053593;28;20628;-42
2022/11/20 04:26:19;;;;;;;20.85;13.00;;;-0.80;37.90;;;;;;5052749;28;20266;-46
2022/11/20 04:28:45;;;;;;;22.23;14.43;;;-0.80;38.00;;;;;;5053425;28;20231;-43
2022/11/20 04:31:14;;;;;;;22.38;13.73;;;-0.80;38.00;;;;;;5053422;28;20700;-44
2022/11/20 04:33:40;;;;;;;21.75;13.65;;;-0.80;37.90;;;;;;5053407;28;20177;-43
2022/11/20 04:36:21;;;;;;;24.95;13.95;;;-0.80;37.80;;;;;;5052625;28;20200;-42
2022/11/20 04:38:50;;;;;;;28.38;14.98;;;-0.80;37.80;;;;;;5052872;28;20161;-46
2022/11/20 04:41:19;;;;;;;22.23;14.10;;;-0.90;37.80;;;;;;5053313;28;20571;-42
2022/11/20 04:43:49;;;;;;;24.17;15.13;;;-0.90;37.80;;;;;;5053148;28;20208;-46
2022/11/20 04:46:16;;;;;;;20.58;12.95;;;-0.90;37.90;;;;;;5052582;28;20196;-45
2022/11/20 04:48:42;;;;;;;21.35;11.75;;;-0.90;38.00;;;;;;5053129;28;20251;-43
2022/11/20 04:51:07;;;;;;;22.80;12.40;;;-0.90;38.00;;;;;;5051719;28;20201;-42
2022/11/20 04:53:33;;;;;;;23.20;13.83;;;-0.90;38.00;;;;;;5053062;28;20252;-44
2022/11/20 04:56:01;;;;;;;23.07;12.90;;;-2.30;37.40;;;;;;5051075;28;20195;-45
2022/11/20 04:58:27;;;;;;;23.38;14.48;;;-0.90;38.10;;;;;;5052946;28;20495;-42
2022/11/20 05:00:53;;;;;;;19.08;13.43;;;-0.90;38.00;;;;;;5052950;28;20225;-42
2022/11/20 05:03:18;;;;;;;24.53;13.40;;;-0.90;38.00;;;;;;5052887;28;20600;-42
2022/11/20 05:05:44;;;;;;;22.50;12.83;;;-1.00;38.00;;;;;;5052045;28;20466;-43
2022/11/20 05:08:10;;;;;;;19.63;12.30;;;-1.00;38.00;;;;;;5052735;28;20197;-43
2022/11/20 05:10:35;;;;;;;20.20;10.70;;;-1.00;38.00;;;;;;5052793;28;20199;-46
2022/11/20 05:13:01;;;;;;;21.07;12.73;;;-1.00;37.90;;;;;;5052741;28;20173;-43
2022/11/20 05:15:27;;;;;;;21.33;12.50;;;-1.00;37.90;;;;;;5052563;28;20185;-43
2022/11/20 05:17:53;;;;;;;24.83;13.80;;;-1.00;38.00;;;;;;5052231;28;20182;-42
2022/11/20 05:20:19;;;;;;;20.87;12.17;;;-1.00;37.80;;;;;;5051651;28;20672;-43
2022/11/20 05:22:45;;;;;;;19.13;12.93;;;-1.00;37.70;;;;;;5053719;28;20427;-41
2022/11/20 05:25:11;;;;;;;17.20;12.18;;;-1.00;37.90;;;;;;5054661;28;20181;-42
2022/11/20 05:27:37;;;;;;;21.42;12.52;;;-1.00;37.90;;;;;;5054035;28;20177;-43
2022/11/20 05:30:04;;;;;;;23.07;12.77;;;-1.00;37.90;;;;;;5055060;28;20681;-43
2022/11/20 05:32:30;;;;;;;25.20;13.00;;;-1.00;37.80;;;;;;5054190;28;20408;-45
2022/11/20 05:34:56;;;;;;;23.70;12.23;;;-1.10;37.80;;;;;;5054040;28;20295;-45
2022/11/20 05:37:22;;;;;;;19.63;11.50;;;-1.10;37.80;;;;;;5051994;28;20584;-43
2022/11/20 05:39:47;;;;;;;18.30;11.63;;;-1.10;37.90;;;;;;5052266;28;20189;-42
2022/11/20 05:42:31;;;;;;;22.47;13.27;;;-1.10;37.80;;;;;;5052184;28;20844;-43
2022/11/20 05:45:02;;;;;;;20.73;12.15;;;-1.10;37.90;;;;;;5052285;28;20170;-42
2022/11/20 05:47:32;;;;;;;25.30;13.65;;;-1.10;37.70;;;;;;5051566;28;20558;-42
2022/11/20 05:49:58;;;;;;;22.45;13.02;;;-1.10;37.80;;;;;;5051756;28;20197;-43
2022/11/20 05:52:24;;;;;;;22.90;11.50;;;-1.20;37.80;;;;;;5053333;28;20274;-42
2022/11/20 05:54:50;;;;;;;20.63;11.82;;;-1.10;37.90;;;;;;5053568;28;20234;-42
2022/11/20 05:57:16;;;;;;;22.77;13.30;;;-1.20;37.70;;;;;;5051449;28;20669;-42
2022/11/20 05:59:42;;;;;;;25.08;13.85;;;-1.20;37.70;;;;;;5051955;28;20247;-43
2022/11/20 06:02:08;;;;;;;19.45;13.60;;;-1.20;37.90;;;;;;5052394;28;20181;-42
2022/11/20 06:04:34;;;;;;;20.90;12.50;;;-1.20;38.00;;;;;;5051921;28;20503;-42
2022/11/20 06:06:59;;;;;;;21.73;12.33;;;-1.20;37.90;;;;;;5051310;28;20254;-43
2022/11/20 06:09:25;;;;;;;22.03;11.63;;;-1.20;37.80;;;;;;5052237;28;20177;-43
2022/11/20 06:11:51;;;;;;;24.37;11.53;;;-1.20;37.80;;;;;;5051901;28;20178;-42
2022/11/20 06:14:16;;;;;;;26.23;12.70;;;-1.20;37.90;;;;;;5051949;28;20258;-41
2022/11/20 06:16:42;;;;;;;25.23;13.50;;;-1.20;37.80;;;;;;5051226;28;20193;-42
2022/11/20 06:19:08;;;;;;;19.77;12.67;;;-1.20;37.90;;;;;;5051690;28;20200;-43
2022/11/20 06:21:33;;;;;;;27.57;14.27;;;-1.20;37.80;;;;;;5052063;28;20510;-45
2022/11/20 06:23:59;;;;;;;19.67;11.97;;;-1.20;37.70;;;;;;5051812;28;20172;-45
2022/11/20 06:26:27;;;;;;;23.33;15.80;;;-1.20;37.70;;;;;;5051262;28;20783;-41
2022/11/20 06:28:53;;;;;;;26.10;12.75;;;-1.20;37.70;;;;;;5052023;28;20165;-41
2022/11/20 06:31:21;;;;;;;20.27;11.45;;;-1.20;37.70;;;;;;5051971;28;20172;-40
2022/11/20 06:33:47;;;;;;;27.75;13.05;;;-1.20;37.80;;;;;;5052027;28;20180;-43
2022/11/20 06:36:15;;;;;;;22.02;11.90;;;-1.20;37.70;;;;;;5051160;28;20182;-42
2022/11/20 06:38:42;;;;;;;24.23;13.63;;;-1.20;37.80;;;;;;5052031;28;20260;-41
2022/11/20 06:41:12;;;;;;;22.75;13.20;;;-1.20;37.70;;;;;;5051447;28;20569;-46
2022/11/20 06:43:38;;;;;;;23.58;15.48;;;-1.20;37.80;;;;;;5051970;28;20158;-45
2022/11/20 06:46:04;;;;;;;23.10;14.73;;;-1.20;37.80;;;;;;5050886;28;20189;-42
2022/11/20 06:48:30;;;;;;;25.87;15.17;;;-1.20;38.50;;;;;;5051559;28;20172;-43
2022/11/20 06:50:56;;;;;;;37.85;16.80;;;-1.20;37.80;;;;;;5051618;28;21104;-43
2022/11/20 06:53:23;;;;;;;29.33;17.17;;;-1.20;37.90;;;;;;5051481;28;20181;-43
2022/11/20 06:55:49;;;;;;;32.33;18.13;;;-1.10;37.90;;;;;;5050798;28;20189;-42
2022/11/20 06:58:16;;;;;;;30.92;16.98;;;-1.20;37.80;;;;;;5051465;28;20254;-41
2022/11/20 07:00:42;;;;;;;28.95;17.60;;;-1.20;37.80;;;;;;5051294;28;20194;-42
2022/11/20 07:03:09;;;;;;;25.33;15.80;;;-1.10;38.00;;;;;;5054312;28;20176;-42
2022/11/20 07:05:36;;;;;;;30.05;15.30;;;-1.10;38.00;;;;;;5054457;28;20193;-41
2022/11/20 07:08:03;;;;;;;23.27;14.45;;;-1.10;38.00;;;;;;5055029;28;20174;-42
2022/11/20 07:10:28;;;;;;;26.10;14.15;;;-1.10;38.00;;;;;;5054925;28;20244;-45
2022/11/20 07:12:54;;;;;;;25.37;15.20;;;-1.00;38.00;;;;;;5055416;28;20216;-43
2022/11/20 07:15:22;;;;;;;24.20;12.82;;;-1.00;38.00;;;;;;5054769;28;20224;-42
2022/11/20 07:17:48;;;;;;;24.05;12.25;;;-1.00;37.90;;;;;;5054212;28;20257;-42
2022/11/20 07:20:14;;;;;;;19.23;11.75;;;-1.00;37.80;;;;;;5054614;28;20208;-42
2022/11/20 07:22:40;;;;;;;23.73;14.88;;;-1.00;38.00;;;;;;5054726;28;20216;-44
2022/11/20 07:25:07;;;;;;;24.97;14.40;;;-1.00;38.00;;;;;;5054628;28;20564;-43
2022/11/20 07:27:33;;;;;;;24.92;13.70;;;-1.00;38.10;;;;;;5053805;28;20428;-44
2022/11/20 07:29:59;;;;;;;22.33;13.25;;;-0.90;38.30;;;;;;5054570;28;20177;-45
2022/11/20 07:32:25;;;;;;;25.33;14.23;;;-0.80;38.30;;;;;;5054542;28;20529;-43
2022/11/20 07:34:50;;;;;;;24.77;13.73;;;-0.80;38.30;;;;;;5054587;28;20170;-43
2022/11/20 07:37:16;;;;;;;25.80;14.17;;;-0.70;38.30;;;;;;5053894;28;20462;-43
2022/11/20 07:39:42;;;;;;;20.83;13.93;;;-0.70;38.30;;;;;;5054277;28;20604;-43
2022/11/20 07:42:08;;;;;;;27.10;14.48;;;-0.70;38.50;;;;;;5054479;28;20396;-42
2022/11/20 07:44:34;;;;;;;20.10;12.80;;;-0.60;38.50;;;;;;5054389;28;20255;-43
2022/11/20 07:47:01;;;;;;;22.08;13.75;;;-0.60;38.50;;;;;;5054383;28;20193;-42
2022/11/20 07:49:26;;;;;;;24.40;14.25;;;-0.50;38.60;;;;;;5055822;28;20185;-42
2022/11/20 07:51:55;;;;;;;24.27;13.83;;;-0.40;38.70;;;;;;5055881;28;20540;-43
2022/11/20 07:54:22;;;;;;;26.73;13.27;;;-0.20;38.70;;;;;;5055587;28;20252;-42
2022/11/20 07:56:48;;;;;;;21.02;13.38;;;0.10;38.90;;;;;;5055591;28;20206;-46
2022/11/20 07:59:15;;;;;;;24.40;15.65;;;0.20;38.70;;;;;;5055220;28;20193;-43
2022/11/20 08:01:42;;;;;;;25.67;14.82;;;0.30;38.60;;;;;;5054896;28;20205;-43
2022/11/20 08:04:08;;;;;;;35.47;15.07;;;0.40;38.60;;;;;;5054305;28;20219;-41
2022/11/20 08:06:34;;;;;;;23.48;14.55;;;0.50;38.60;;;;;;5053256;28;20284;-47
2022/11/20 08:09:00;;;;;;;26.27;16.50;;;0.60;38.70;;;;;;5053555;28;20268;-43
2022/11/20 08:14:13;;;;;;;29.45;18.02;;;1.50;39.20;;;;;;5053509;28;20605;-45
2022/11/20 08:16:46;;;;;;;27.38;14.32;;;2.00;39.00;;;;;;5052990;28;20192;-43
2022/11/20 08:19:14;;;;;;;25.48;17.17;;;2.40;38.40;;;;;;5053945;28;20204;-44
2022/11/20 08:21:40;;;;;;;26.23;15.55;;;2.80;37.90;;;;;;5053631;28;20186;-42
2022/11/20 08:24:07;;;;;;;27.55;16.02;;;3.20;37.40;;;;;;5053434;28;20196;-44
2022/11/20 08:26:34;;;;;;;28.77;17.50;;;3.60;36.90;;;;;;5052561;28;20216;-45
2022/11/20 08:29:00;;;;;;;28.17;17.00;;;3.70;36.60;;;;;;5053492;28;20172;-42
2022/11/20 08:31:26;;;;;;;45.77;18.20;;;3.70;36.70;;;;;;5053699;28;20181;-44
2022/11/20 08:33:52;;;;;;;33.10;18.95;;;3.80;36.90;;;;;;5052423;28;20553;-43
2022/11/20 08:36:20;;;;;;;29.25;18.40;;;4.00;37.00;;;;;;5052958;28;20281;-43
2022/11/20 08:38:49;;;;;;;27.60;18.73;;;4.30;36.90;;;;;;5053204;28;20180;-43
2022/11/20 08:41:25;;;;;;;27.35;17.40;;;4.60;36.80;;;;;;5053443;28;20238;-44
2022/11/20 08:43:52;;;;;;;29.58;18.33;;;5.00;36.30;;;;;;5053109;28;20660;-46
2022/11/20 08:46:18;;;;;;;32.65;17.42;;;5.50;35.90;;;;;;5052462;28;20189;-44
2022/11/20 08:48:44;;;;;;;27.42;17.80;;;6.20;35.10;;;;;;5053062;28;20170;-42
2022/11/20 08:51:11;;;;;;;29.20;18.58;;;6.80;34.50;;;;;;5065658;22;20222;-39
2022/11/20 08:53:37;;;;;;;29.63;17.92;;;7.50;33.70;;;;;;5053738;28;20176;-39
2022/11/20 08:56:04;;;;;;;23.23;15.77;;;8.00;33.10;;;;;;5055158;28;20421;-40
2022/11/20 08:58:30;;;;;;;25.52;16.15;;;8.30;32.10;;;;;;5054495;28;20173;-39
2022/11/20 09:00:56;;;;;;;23.70;16.17;;;8.30;30.80;;;;;;5053974;28;20198;-39
2022/11/20 09:03:22;;;;;;;27.05;16.08;;;8.20;29.60;;;;;;5054117;28;20177;-40
2022/11/20 09:05:48;;;;;;;24.02;15.38;;;8.10;30.90;;;;;;5053457;28;20181;-40
2022/11/20 09:08:14;;;;;;;24.70;15.95;;;8.00;31.80;;;;;;5052412;28;20178;-39
2022/11/20 09:10:39;;;;;;;28.33;16.23;;;7.80;32.30;;;;;;5051951;28;20256;-40
2022/11/20 09:13:05;;;;;;;31.37;19.40;;;7.70;31.20;;;;;;5054580;28;20174;-40
2022/11/20 09:15:32;;;;;;;25.92;17.27;;;7.40;31.90;;;;;;5054331;28;20180;-41
2022/11/20 09:18:00;;;;;;;24.80;13.90;;;7.20;31.70;;;;;;5052573;28;20169;-40
2022/11/20 09:20:31;;;;;;;26.88;18.35;;;7.00;31.40;;;;;;5053180;28;20247;-40
2022/11/20 09:22:57;;;;;;;26.77;17.73;;;6.70;32.10;;;;;;5052812;28;20162;-40
2022/11/20 09:25:23;;;;;;;21.13;15.20;;;6.40;33.00;;;;;;5052824;28;20370;-40
2022/11/20 09:27:58;;;;;;;54.65;36.78;;;6.30;33.80;;;;;;5053903;28;20252;-43
2022/11/20 09:30:24;;;;;;;32.42;19.02;;;6.20;34.10;;;;;;5056076;28;20160;-41
2022/11/20 09:32:50;;;;;;;89.90;58.20;;;6.30;33.90;;;;;;5052988;28;20196;-41
2022/11/20 09:35:17;;;;;;;27.87;17.03;;;6.40;34.10;;;;;;5053510;28;20177;-40
2022/11/20 09:37:43;;;;;;;26.33;16.10;;;6.60;32.80;;;;;;5052578;28;20400;-41
2022/11/20 09:40:25;;;;;;;28.60;18.05;;;6.60;33.60;;;;;;5053678;28;20201;-41
2022/11/20 09:43:19;;;;;;;33.80;20.50;;;6.80;33.20;;;;;;5053792;28;20218;-41
2022/11/20 09:45:48;;;;;;;32.80;19.45;;;6.70;34.00;;;;;;4998257;28;20338;-41
2022/11/20 09:48:41;;;;;;;25.10;14.52;;;6.50;33.80;;;;;;5054166;28;20211;-41
2022/11/20 09:51:37;;;;;;;28.08;16.15;;;6.50;32.90;;;;;;5052843;28;20215;-41
2022/11/20 09:54:19;;;;;;;25.17;12.65;;;6.70;33.60;;;;;;5052838;28;20157;-41
2022/11/20 09:56:58;;;;;;;21.20;13.65;;;7.10;33.40;;;;;;5051494;28;20181;-42
2022/11/20 09:59:43;;;;;;;23.13;14.73;;;7.20;32.40;;;;;;5052950;28;20197;-42
2022/11/20 10:02:24;;;;;;;18.83;12.18;;;7.40;32.90;;;;;;5053509;28;20560;-42
2022/11/20 10:05:02;;;;;;;21.65;13.90;;;7.70;31.80;;;;;;5054142;28;20173;-41
2022/11/20 10:07:59;;;;;;;24.35;15.00;;;7.80;31.10;;;;;;5054498;28;20161;-41
2022/11/20 10:10:44;;;;;;;19.63;13.23;;;7.80;31.40;;;;;;5032711;28;20184;-42
2022/11/20 10:13:18;;;;;;;22.92;13.48;;;7.90;30.50;;;;;;5031424;28;20240;-41
2022/11/20 10:15:49;;;;;;;21.52;12.38;;;7.90;29.60;;;;;;5030251;28;20319;-42
2022/11/20 10:18:41;;;;;;;23.00;14.65;;;7.60;30.20;;;;;;5031686;28;20217;-41
2022/11/20 10:21:15;;;;;;;19.83;12.63;;;7.40;30.30;;;;;;5031850;28;20201;-42
2022/11/20 10:23:51;;;;;;;21.55;12.50;;;7.20;31.20;;;;;;5031995;28;20725;-42
2022/11/20 10:26:31;;;;;;;19.75;11.70;;;7.10;31.30;;;;;;5031354;28;20182;-42
2022/11/20 10:29:07;;;;;;;16.88;12.35;;;7.10;31.10;;;;;;5031568;28;20166;-42
2022/11/20 10:31:40;;;;;;;23.95;13.27;;;7.00;31.00;;;;;;5031108;28;20201;-42
2022/11/20 10:34:23;;;;;;;19.42;12.85;;;7.00;31.40;;;;;;5031937;28;20175;-41
2022/11/20 10:37:03;;;;;;;19.15;12.98;;;7.10;32.40;;;;;;5031609;28;20351;-42
2022/11/20 10:39:57;;;;;;;20.23;12.55;;;7.30;31.20;;;;;;5034420;28;20205;-42
2022/11/20 10:42:37;;;;;;;18.20;9.82;;;7.30;30.60;;;;;;5055541;28;20220;-41
2022/11/20 10:45:29;;;;;;;14.68;9.40;;;7.20;32.10;;;;;;5055670;28;20235;-41
2022/11/20 10:48:17;;;;;;;17.08;11.13;;;7.30;31.10;;;;;;5047003;28;20216;-42
2022/11/20 10:51:22;;;;;;;20.20;12.10;;;7.30;30.80;;;;;;5044266;28;20270;-41
2022/11/20 10:54:28;;;;;;;19.73;11.07;;;7.20;29.20;;;;;;5055353;28;20177;-42
2022/11/20 10:57:02;;;;;;;18.30;11.82;;;6.90;30.60;;;;;;5056074;28;20169;-41
2022/11/20 11:00:04;;;;;;;16.48;11.23;;;6.80;31.80;;;;;;5057783;28;20245;-42
2022/11/20 11:02:46;;;;;;;15.50;10.57;;;6.80;31.40;;;;;;5055127;28;20672;-41
2022/11/20 11:05:20;;;;;;;17.02;11.70;;;6.80;32.40;;;;;;5055173;28;20212;-41
2022/11/20 11:07:53;;;;;;;19.42;9.75;;;6.70;32.80;;;;;;5054598;28;20248;-42
2022/11/20 11:10:31;;;;;;;18.02;11.68;;;6.70;32.00;;;;;;5054965;28;20548;-41
2022/11/20 11:12:56;;;;;;;19.10;10.52;;;6.60;31.80;;;;;;5054937;28;20168;-41
2022/11/20 11:15:36;;;;;;;20.73;10.60;;;6.50;32.00;;;;;;5054807;28;20177;-41
2022/11/20 11:18:02;;;;;;;14.55;9.23;;;6.60;32.50;;;;;;5054924;28;20159;-41
2022/11/20 11:20:28;;;;;;;14.17;9.47;;;6.70;32.70;;;;;;5054497;28;20193;-41
2022/11/20 11:22:56;;;;;;;18.30;9.00;;;6.70;32.30;;;;;;5054740;28;20415;-41
2022/11/20 11:25:24;;;;;;;15.90;8.85;;;6.70;32.30;;;;;;5054672;28;20265;-41
2022/11/20 11:27:52;;;;;;;16.65;10.00;;;6.80;32.20;;;;;;5054288;28;20165;-41
2022/11/20 11:30:20;;;;;;;17.50;10.00;;;6.70;32.00;;;;;;5054533;28;20177;-41
2022/11/20 11:32:46;;;;;;;14.43;9.55;;;6.70;32.50;;;;;;5054495;28;20204;-40
2022/11/20 11:35:26;;;;;;;14.13;10.77;;;6.60;33.10;;;;;;5054364;28;20235;-40
2022/11/20 11:37:55;;;;;;;15.43;10.02;;;6.70;32.90;;;;;;5055659;28;20202;-41
2022/11/20 11:40:22;;;;;;;11.88;8.02;;;6.70;33.40;;;;;;5056165;28;20204;-41
2022/11/20 11:42:58;;;;;;;12.45;7.95;;;6.80;34.30;;;;;;5054205;28;20196;-41
2022/11/20 11:45:25;;;;;;;9.73;5.88;;;7.20;35.40;;;;;;5054253;28;20173;-41
2022/11/20 11:47:53;;;;;;;11.82;8.32;;;7.60;34.50;;;;;;5053242;28;20220;-42
2022/11/20 11:50:21;;;;;;;9.45;5.55;;;7.90;34.00;;;;;;5054134;28;20188;-41
2022/11/20 11:53:06;;;;;;;9.30;6.90;;;8.00;32.90;;;;;;5054326;28;20207;-41
2022/11/20 11:56:02;;;;;;;9.18;6.35;;;8.30;32.70;;;;;;5054013;28;20165;-41
2022/11/20 11:58:48;;;;;;;9.23;6.30;;;8.50;32.90;;;;;;5054231;28;20712;-41
2022/11/20 12:01:41;;;;;;;9.02;6.07;;;8.70;32.60;;;;;;5054058;28;20217;-41
2022/11/20 12:04:42;;;;;;;8.88;5.88;;;8.90;32.00;;;;;;5053891;28;20165;-42
2022/11/20 12:07:43;;;;;;;9.05;5.95;;;9.00;30.90;;;;;;5053335;28;20173;-41
2022/11/20 12:10:46;;;;;;;9.27;5.95;;;9.00;30.00;;;;;;5053334;28;20181;-40
2022/11/20 12:13:25;;;;;;;12.85;6.63;;;9.00;30.40;;;;;;5053661;28;20168;-41
2022/11/20 12:15:52;;;;;;;7.75;5.85;;;9.10;31.00;;;;;;5053355;28;20211;-43
2022/11/20 12:18:21;;;;;;;9.38;6.20;;;9.40;30.50;;;;;;5053682;28;20177;-41
2022/11/20 12:21:11;;;;;;;10.65;6.50;;;9.70;30.90;;;;;;5053466;28;20187;-40
2022/11/20 12:23:48;;;;;;;9.93;6.57;;;10.40;29.60;;;;;;5053676;28;20171;-40
2022/11/20 12:26:38;;;;;;;10.95;7.43;;;10.40;28.90;;;;;;5052901;28;20221;-42
2022/11/20 12:29:41;;;;;;;8.55;5.90;;;10.50;28.70;;;;;;5052860;28;20193;-40
2022/11/20 12:32:15;;;;;;;10.63;7.03;;;10.00;28.90;;;;;;5053279;28;20541;-42
2022/11/20 12:34:54;;;;;;;11.23;6.85;;;9.70;28.90;;;;;;5053312;28;20178;-41
2022/11/20 12:37:26;;;;;;;8.32;6.00;;;9.00;29.90;;;;;;5052939;28;20211;-41
2022/11/20 12:40:18;;;;;;;10.93;5.93;;;8.40;31.00;;;;;;5053399;28;20181;-40
2022/11/20 12:46:23;;;;;;;8.23;4.88;;;7.50;33.60;;;;;;5041555;28;20231;-40
2022/11/20 12:49:12;;;;;;;8.82;5.75;;;6.90;34.20;;;;;;5053139;28;20704;-41
2022/11/20 12:52:03;;;;;;;9.88;6.75;;;6.60;35.20;;;;;;5052885;28;20240;-41
2022/11/20 12:54:46;;;;;;;8.93;5.43;;;6.50;36.10;;;;;;5051636;28;20192;-40
2022/11/20 12:57:49;;;;;;;6.15;5.18;;;6.10;36.30;;;;;;5052368;28;20196;-40